Kansas City, Missouri
Traffic Map
Current Weather Conditions
Kansas City, Missouri
Clear
Clear
21°
Feels Like: 21°
Wind Chill: 21° Ceiling: Unl
Heat Index: 21° Visibility: 10mi
Dew Point: 11° Wind: 7mph
Humidity: 54% Direction: 330° (NNW)
Pressure: 30.29in Gusts: 0mph
Raw Report DataKMKC 251354Z 33006KT 10SM CLR 21/11 A3029 RMK AO2 SLP252 T02060111
Traffic Incident Summary
Active as of:
Severity:
Category:
InformationThere was an issue retrieving the traffic information for this location. Please try a different location or try again shortly.
Advertisements
Track Severe Weather on mobile